Decker, Montana
Current Conditions -  °F | °C
As of 4:53 AM on Tuesday 21 Oct 2014 (Local Time) from KSHR Reporting Station
Clear Clear  
Wind Chill: 39°   Ceiling: Unl
Heat Index: 43°   Visibility: 10mi
Dew Point: 30°   Wind: 6mph
Humidity: 60%   Direction: 270°W
Pressure: 29.79"   Gusts: NA
Location:  45.03°N, 106.84°W
Report Text: KSHR 211053Z AUTO 27005KT 10SM CLR 06/M01 A2979 RMK AO2 SLP067 T00611011 TSNO
Loading
Personal Weather Stations






























Interactive Weather Map
Tropical Storm Tracking
New forecast layout! Learn more

10-Day Weather Forecast

Advertisements
Track Severe Weather on mobile